Time;durP1;ratioP1;P1;durP2;ratioP2;P2;SDS_P1;SDS_P2;PMS_P1;PMS_P2;Temp;Humidity;BMP_temperature;BMP_pressure;BME280_temperature;BME280_humidity;BME280_pressure;Samples;Min_cycle;Max_cycle;Signal;HPM_P1;HPM_P2
2021/04/02 00:00:43;;;;;;;52.63;22.37;;;15.30;63.20;;;;;;5068664;28;20425;-70
2021/04/02 00:03:14;;;;;;;65.67;27.70;;;15.20;63.40;;;;;;5070951;28;20551;-71
2021/04/02 00:05:40;;;;;;;52.50;23.00;;;15.20;63.50;;;;;;5059217;28;20441;-72
2021/04/02 00:08:06;;;;;;;49.90;24.13;;;15.10;63.80;;;;;;5072548;28;20421;-72
2021/04/02 00:10:47;;;;;;;53.07;22.47;;;15.10;64.20;;;;;;5067695;28;20431;-72
2021/04/02 00:13:21;;;;;;;56.23;22.97;;;15.00;64.40;;;;;;5068083;28;20426;-71
2021/04/02 00:15:48;;;;;;;53.23;23.90;;;14.90;64.70;;;;;;5072608;28;20488;-71
2021/04/02 00:18:15;;;;;;;49.33;23.60;;;14.90;65.00;;;;;;5073855;28;20433;-70
2021/04/02 00:20:40;;;;;;;52.13;25.50;;;14.90;65.00;;;;;;5068308;28;20534;-71
2021/04/02 00:23:07;;;;;;;57.03;25.10;;;14.90;65.30;;;;;;5069309;28;20546;-70
2021/04/02 00:25:34;;;;;;;51.90;24.10;;;14.80;65.60;;;;;;5072304;28;20195;-70
2021/04/02 00:28:00;;;;;;;55.50;24.30;;;14.70;65.80;;;;;;5071500;28;20434;-71
2021/04/02 00:30:47;;;;;;;55.70;25.97;;;14.70;66.00;;;;;;5061074;28;20415;-71
2021/04/02 00:33:13;;;;;;;56.47;25.83;;;14.60;66.60;;;;;;5072191;28;20616;-70
2021/04/02 00:35:40;;;;;;;55.50;25.40;;;14.50;66.90;;;;;;5073479;28;20525;-70
2021/04/02 00:38:07;;;;;;;57.90;25.70;;;14.50;67.00;;;;;;5074620;28;20426;-70
2021/04/02 00:40:41;;;;;;;53.27;25.00;;;14.50;67.50;;;;;;5073878;28;20473;-71
2021/04/02 00:43:07;;;;;;;61.93;27.27;;;14.40;67.70;;;;;;5084101;28;20458;-70
2021/04/02 00:45:33;;;;;;;57.17;26.13;;;14.30;67.90;;;;;;5078703;28;20524;-71
2021/04/02 00:47:58;;;;;;;63.37;28.50;;;14.30;68.20;;;;;;5072305;28;20498;-72
2021/04/02 00:50:41;;;;;;;63.87;27.13;;;14.20;68.50;;;;;;5071151;28;20978;-70
2021/04/02 00:53:08;;;;;;;65.70;29.00;;;14.20;68.50;;;;;;5071749;28;20554;-69
2021/04/02 00:55:35;;;;;;;59.40;29.53;;;14.20;68.90;;;;;;5070730;28;20434;-71
2021/04/02 00:58:01;;;;;;;68.57;29.33;;;14.10;69.20;;;;;;5071601;28;20418;-71
2021/04/02 01:00:27;;;;;;;75.50;31.27;;;14.00;69.70;;;;;;5071771;28;20775;-70
2021/04/02 01:02:56;;;;;;;66.23;28.73;;;14.00;69.80;;;;;;5071669;28;20553;-71
2021/04/02 01:05:25;;;;;;;65.73;29.20;;;14.00;69.80;;;;;;5071181;28;20253;-70
2021/04/02 01:08:00;;;;;;;66.50;29.83;;;14.00;70.10;;;;;;5071435;28;20414;-70
2021/04/02 01:10:28;;;;;;;65.57;28.30;;;13.90;70.10;;;;;;5057840;28;20784;-71
2021/04/02 01:13:04;;;;;;;53.13;25.53;;;13.90;70.10;;;;;;5066978;28;20476;-69
2021/04/02 01:15:52;;;;;;;57.57;25.63;;;13.80;70.10;;;;;;5066341;28;20457;-69
2021/04/02 01:18:23;;;;;;;53.17;24.00;;;13.80;70.10;;;;;;5069410;28;20418;-71
2021/04/02 01:20:51;;;;;;;53.30;23.63;;;13.70;69.90;;;;;;5070748;28;20421;-71
2021/04/02 01:23:20;;;;;;;46.93;23.13;;;13.60;69.80;;;;;;5071115;28;20473;-70
2021/04/02 01:25:53;;;;;;;50.57;23.20;;;13.60;70.20;;;;;;5070940;28;20891;-71
2021/04/02 01:28:43;;;;;;;40.90;20.50;;;13.50;70.20;;;;;;5071883;28;20912;-71
2021/04/02 01:31:11;;;;;;;41.60;20.20;;;13.40;69.90;;;;;;5075746;28;20449;-71
2021/04/02 01:33:37;;;;;;;44.30;20.10;;;13.40;69.90;;;;;;5079343;28;20422;-70
2021/04/02 01:36:04;;;;;;;47.43;20.77;;;13.30;70.10;;;;;;5070986;28;20446;-72
2021/04/02 01:38:36;;;;;;;43.83;19.13;;;13.30;70.10;;;;;;5072806;28;21183;-71
2021/04/02 01:41:06;;;;;;;37.33;17.57;;;13.30;70.10;;;;;;5071130;28;20881;-71
2021/04/02 01:43:39;;;;;;;38.20;18.50;;;13.20;70.20;;;;;;5070509;28;20466;-71
2021/04/02 01:46:06;;;;;;;36.67;17.70;;;13.10;70.50;;;;;;5070711;28;20426;-71
2021/04/02 01:48:33;;;;;;;45.07;18.70;;;13.00;71.10;;;;;;5066326;28;20431;-70
2021/04/02 01:51:01;;;;;;;37.80;17.97;;;13.00;71.40;;;;;;5069956;28;20767;-70
2021/04/02 01:53:30;;;;;;;45.37;18.60;;;13.00;71.40;;;;;;5071009;28;20434;-71
2021/04/02 01:55:57;;;;;;;29.57;17.07;;;13.00;71.30;;;;;;5069554;28;20579;-71
2021/04/02 01:58:23;;;;;;;36.30;17.00;;;12.90;71.60;;;;;;5070386;28;20423;-70
2021/04/02 02:00:53;;;;;;;38.37;18.00;;;12.90;71.80;;;;;;5078920;28;20431;-70
2021/04/02 02:03:20;;;;;;;30.87;16.97;;;12.90;71.70;;;;;;5064070;28;20457;-71
2021/04/02 02:05:47;;;;;;;37.83;16.07;;;12.80;71.80;;;;;;5070248;28;20876;-70
2021/04/02 02:08:14;;;;;;;37.17;15.73;;;12.70;72.30;;;;;;5066659;28;20460;-71
2021/04/02 02:10:40;;;;;;;34.07;14.87;;;12.70;72.40;;;;;;5069885;28;20422;-70
2021/04/02 02:13:07;;;;;;;27.23;14.43;;;12.60;72.30;;;;;;5070251;28;20461;-71
2021/04/02 02:15:37;;;;;;;30.83;14.23;;;12.60;72.30;;;;;;5069767;28;20458;-70
2021/04/02 02:18:07;;;;;;;26.63;13.60;;;12.60;72.30;;;;;;5069974;28;20867;-71
2021/04/02 02:20:37;;;;;;;27.20;12.47;;;12.50;72.40;;;;;;5069399;28;20429;-70
2021/04/02 02:23:04;;;;;;;26.50;13.70;;;12.50;72.40;;;;;;5070009;28;20489;-70
2021/04/02 02:25:30;;;;;;;23.63;12.50;;;12.50;72.60;;;;;;5074730;28;20496;-70
2021/04/02 02:27:56;;;;;;;21.63;11.27;;;12.50;72.30;;;;;;5067377;28;20422;-70
2021/04/02 02:30:24;;;;;;;22.30;11.00;;;12.40;72.40;;;;;;5060924;28;20914;-70
2021/04/02 02:32:52;;;;;;;21.70;11.00;;;12.40;72.40;;;;;;5066640;28;20992;-69
2021/04/02 02:35:18;;;;;;;29.33;11.23;;;12.30;72.60;;;;;;5072639;28;20940;-71
2021/04/02 02:37:45;;;;;;;22.47;10.20;;;12.30;72.70;;;;;;5072396;28;20414;-72
2021/04/02 02:40:14;;;;;;;17.67;9.27;;;12.30;73.00;;;;;;5070809;28;20430;-72
2021/04/02 02:42:40;;;;;;;21.67;10.40;;;12.20;73.20;;;;;;5070012;28;20458;-71
2021/04/02 02:45:09;;;;;;;19.93;10.10;;;12.20;73.20;;;;;;5070154;28;20442;-72
2021/04/02 02:47:35;;;;;;;28.43;10.50;;;12.20;73.20;;;;;;5071749;28;20949;-71
2021/04/02 02:50:04;;;;;;;17.90;9.97;;;12.20;73.00;;;;;;5072038;28;20418;-72
2021/04/02 02:52:33;;;;;;;21.23;10.77;;;12.20;73.20;;;;;;5071872;28;20781;-72
2021/04/02 02:55:00;;;;;;;25.87;11.13;;;12.10;73.00;;;;;;5073759;28;20426;-72
2021/04/02 02:57:28;;;;;;;16.70;9.10;;;12.00;73.30;;;;;;5074666;28;20452;-71
2021/04/02 02:59:58;;;;;;;20.63;9.77;;;12.10;73.20;;;;;;5073167;28;20537;-71
2021/04/02 03:02:26;;;;;;;17.50;9.10;;;12.00;73.00;;;;;;5061486;28;20476;-73
2021/04/02 03:04:54;;;;;;;16.70;9.13;;;11.90;73.20;;;;;;5074002;28;20524;-72
2021/04/02 03:07:21;;;;;;;28.03;10.50;;;11.80;73.50;;;;;;5075545;28;20433;-71
2021/04/02 03:09:49;;;;;;;19.33;8.40;;;11.80;73.90;;;;;;5074621;28;20485;-72
2021/04/02 03:12:17;;;;;;;25.70;9.27;;;11.80;73.90;;;;;;5087971;28;20493;-72
2021/04/02 03:14:45;;;;;;;23.30;9.33;;;11.80;73.90;;;;;;5089354;28;20433;-72
2021/04/02 03:17:11;;;;;;;21.80;10.40;;;11.70;74.00;;;;;;5073885;28;20936;-72
2021/04/02 03:19:38;;;;;;;19.27;9.30;;;11.70;74.20;;;;;;5073717;28;20429;-72
2021/04/02 03:22:06;;;;;;;28.63;13.90;;;11.60;74.50;;;;;;5074421;28;20454;-71
2021/04/02 03:24:34;;;;;;;29.23;12.70;;;11.60;75.10;;;;;;5074600;28;20421;-72
2021/04/02 03:27:01;;;;;;;30.13;13.53;;;11.60;75.70;;;;;;5076634;28;20552;-73
2021/04/02 03:29:28;;;;;;;25.07;11.33;;;11.50;75.80;;;;;;5073340;28;20422;-70
2021/04/02 03:32:02;;;;;;;24.43;11.87;;;11.50;76.10;;;;;;5064975;28;20924;-71
2021/04/02 03:34:29;;;;;;;21.70;10.87;;;11.50;75.50;;;;;;5074003;28;20414;-72
2021/04/02 03:36:57;;;;;;;25.20;10.00;;;11.40;75.20;;;;;;5073233;28;20442;-72
2021/04/02 03:39:27;;;;;;;20.90;9.70;;;11.30;74.80;;;;;;5071053;28;20484;-71
2021/04/02 03:41:54;;;;;;;18.67;9.70;;;11.20;73.90;;;;;;5064015;28;20515;-70
2021/04/02 03:44:24;;;;;;;14.60;8.13;;;11.10;74.30;;;;;;5072746;28;20966;-71
2021/04/02 03:46:53;;;;;;;33.80;9.97;;;11.00;73.00;;;;;;5068253;28;20470;-71
2021/04/02 03:49:22;;;;;;;14.53;8.50;;;10.80;73.90;;;;;;5070318;28;20422;-70
2021/04/02 03:51:52;;;;;;;23.10;9.67;;;10.80;74.30;;;;;;5072867;28;20441;-71
2021/04/02 03:54:18;;;;;;;13.53;8.30;;;10.80;74.00;;;;;;5072306;28;20467;-71
2021/04/02 03:56:47;;;;;;;17.10;8.23;;;10.80;73.70;;;;;;5067189;28;20451;-71
2021/04/02 03:59:15;;;;;;;16.37;7.90;;;10.80;73.70;;;;;;5067734;28;20485;-71
2021/04/02 04:01:44;;;;;;;14.37;8.07;;;10.80;73.30;;;;;;5067008;28;20457;-70
2021/04/02 04:04:10;;;;;;;20.67;7.10;;;10.60;72.60;;;;;;5072568;28;20420;-71
2021/04/02 04:06:38;;;;;;;15.30;8.07;;;10.60;72.00;;;;;;5071725;28;20442;-71
2021/04/02 04:09:12;;;;;;;14.23;6.50;;;10.50;72.00;;;;;;5070716;28;20418;-72
2021/04/02 04:11:41;;;;;;;11.23;5.60;;;10.40;71.80;;;;;;5072272;28;20574;-72
2021/04/02 04:14:08;;;;;;;11.80;6.80;;;10.30;70.80;;;;;;5071485;28;20887;-71
2021/04/02 04:16:37;;;;;;;11.40;5.80;;;10.20;71.00;;;;;;5073906;28;20486;-71
2021/04/02 04:19:05;;;;;;;10.70;5.70;;;10.10;70.50;;;;;;5071581;28;20445;-70
2021/04/02 04:21:39;;;;;;;11.40;6.60;;;10.00;70.70;;;;;;5070877;28;20482;-70
2021/04/02 04:24:07;;;;;;;11.07;6.00;;;9.80;70.70;;;;;;5071078;28;20437;-71
2021/04/02 04:26:35;;;;;;;8.90;5.50;;;9.70;70.40;;;;;;5067336;28;20454;-71
2021/04/02 04:29:02;;;;;;;11.20;5.73;;;9.70;71.00;;;;;;5080004;28;20522;-70
2021/04/02 04:31:29;;;;;;;11.63;5.83;;;9.60;70.40;;;;;;5072309;28;20869;-69
2021/04/02 04:33:58;;;;;;;12.70;6.27;;;9.60;69.70;;;;;;5072133;28;20414;-70
2021/04/02 04:36:25;;;;;;;9.87;5.17;;;9.50;69.90;;;;;;5070902;28;20559;-70
2021/04/02 04:38:53;;;;;;;7.63;4.43;;;9.40;69.20;;;;;;5068798;28;20435;-70
2021/04/02 04:41:21;;;;;;;12.80;4.70;;;9.30;69.20;;;;;;5071324;28;20452;-71
2021/04/02 04:43:48;;;;;;;8.67;3.80;;;9.20;68.60;;;;;;5071827;28;21114;-70
2021/04/02 04:46:14;;;;;;;6.67;3.90;;;9.20;68.90;;;;;;5071608;28;20499;-71
2021/04/02 04:48:40;;;;;;;7.63;4.40;;;9.10;68.20;;;;;;5071374;28;20414;-70
2021/04/02 04:51:07;;;;;;;7.20;4.00;;;9.10;68.50;;;;;;5070821;28;20772;-70
2021/04/02 04:53:36;;;;;;;7.07;3.63;;;9.10;68.20;;;;;;5071691;28;20433;-70
2021/04/02 04:56:06;;;;;;;6.40;3.73;;;9.00;67.20;;;;;;5071407;28;20956;-72
2021/04/02 04:58:34;;;;;;;7.03;3.20;;;9.00;67.20;;;;;;5071505;28;20417;-72
2021/04/02 05:01:08;;;;;;;8.03;3.40;;;9.00;67.50;;;;;;5072089;28;20866;-71
2021/04/02 05:03:35;;;;;;;9.10;4.03;;;9.00;67.00;;;;;;5071488;28;20465;-71
2021/04/02 05:06:02;;;;;;;8.80;3.60;;;8.90;66.70;;;;;;5071059;28;20521;-70
2021/04/02 05:08:41;;;;;;;5.87;3.17;;;8.80;67.20;;;;;;5071082;28;20422;-71
2021/04/02 05:11:11;;;;;;;7.27;3.47;;;8.80;67.20;;;;;;5071779;28;20422;-72
2021/04/02 05:13:39;;;;;;;8.83;3.30;;;8.70;67.50;;;;;;5071300;28;20538;-70
2021/04/02 05:16:06;;;;;;;5.07;3.00;;;8.80;67.70;;;;;;5071127;28;20449;-71
2021/04/02 05:18:33;;;;;;;6.37;3.53;;;8.80;67.70;;;;;;5068583;28;20493;-71
2021/04/02 05:20:59;;;;;;;7.17;3.20;;;8.80;67.20;;;;;;5072094;28;20427;-71
2021/04/02 05:23:25;;;;;;;10.33;3.37;;;8.90;66.90;;;;;;5071926;28;20461;-72
2021/04/02 05:25:51;;;;;;;8.63;3.30;;;8.80;66.10;;;;;;5071308;28;20525;-70
2021/04/02 05:28:17;;;;;;;8.10;3.37;;;8.70;66.90;;;;;;5072038;28;20575;-72
2021/04/02 05:30:43;;;;;;;5.90;3.40;;;8.70;67.20;;;;;;5059191;28;20423;-70
2021/04/02 05:33:08;;;;;;;8.47;3.27;;;8.60;66.90;;;;;;5071129;28;20179;-71
2021/04/02 05:35:35;;;;;;;8.77;3.73;;;8.50;67.30;;;;;;5071710;28;20438;-71
2021/04/02 05:38:01;;;;;;;9.97;3.70;;;8.40;68.20;;;;;;5072596;28;20211;-70
2021/04/02 05:40:27;;;;;;;7.53;4.10;;;8.40;68.20;;;;;;5087209;28;20430;-72
2021/04/02 05:42:59;;;;;;;7.70;3.27;;;8.30;68.30;;;;;;5079437;28;20466;-71
2021/04/02 05:45:26;;;;;;;6.50;2.97;;;8.30;68.60;;;;;;5076869;28;20454;-72
2021/04/02 05:47:53;;;;;;;7.07;3.10;;;8.30;68.90;;;;;;5071041;28;20448;-70
2021/04/02 05:50:21;;;;;;;8.23;3.33;;;8.30;69.10;;;;;;5069201;28;20426;-72
2021/04/02 05:52:51;;;;;;;8.17;3.40;;;8.30;69.20;;;;;;5070361;28;20507;-72
2021/04/02 05:55:18;;;;;;;7.67;4.47;;;8.20;69.80;;;;;;5068911;28;20536;-70
2021/04/02 05:57:47;;;;;;;10.77;4.27;;;8.20;70.40;;;;;;5070226;28;20444;-71
2021/04/02 06:00:14;;;;;;;7.40;3.87;;;8.20;70.50;;;;;;5070140;28;20997;-70
2021/04/02 06:02:40;;;;;;;10.20;3.90;;;8.20;70.70;;;;;;5070425;28;20540;-72
2021/04/02 06:05:08;;;;;;;12.63;5.10;;;8.20;71.00;;;;;;5070011;28;20948;-72
2021/04/02 06:07:37;;;;;;;7.70;4.07;;;8.20;71.10;;;;;;5069232;28;20446;-72
2021/04/02 06:10:03;;;;;;;9.80;4.20;;;8.20;71.10;;;;;;5067999;28;20426;-72
2021/04/02 06:12:30;;;;;;;6.87;3.93;;;8.20;71.10;;;;;;5070210;28;20551;-72
2021/04/02 06:14:56;;;;;;;11.13;4.50;;;8.20;71.40;;;;;;5085714;28;20426;-72
2021/04/02 06:17:22;;;;;;;9.27;5.07;;;8.30;71.30;;;;;;5070602;28;20426;-73
2021/04/02 06:20:04;;;;;;;8.37;4.30;;;8.50;70.50;;;;;;5069996;28;20222;-73
2021/04/02 06:22:30;;;;;;;13.23;4.93;;;8.70;70.40;;;;;;5070313;28;20207;-70
2021/04/02 06:25:02;;;;;;;9.80;4.60;;;9.00;68.80;;;;;;5070014;28;20814;-70
2021/04/02 06:27:29;;;;;;;19.00;5.50;;;9.10;68.20;;;;;;5065971;28;20203;-72
2021/04/02 06:30:03;;;;;;;7.30;4.03;;;9.00;68.50;;;;;;5062400;28;20426;-70
2021/04/02 06:32:37;;;;;;;9.83;4.70;;;8.70;69.70;;;;;;5064355;28;20444;-71
2021/04/02 06:35:08;;;;;;;10.47;5.30;;;8.60;70.40;;;;;;5070240;28;20433;-72
2021/04/02 06:37:34;;;;;;;17.87;5.73;;;8.60;70.80;;;;;;5068464;28;20439;-74
2021/04/02 06:40:00;;;;;;;10.40;5.33;;;8.60;71.30;;;;;;5072309;28;20429;-70
2021/04/02 06:42:31;;;;;;;8.83;4.97;;;8.50;71.60;;;;;;5073376;28;20465;-72
2021/04/02 06:45:10;;;;;;;12.07;5.87;;;8.50;71.60;;;;;;5074067;28;20436;-72
2021/04/02 06:47:37;;;;;;;10.77;5.23;;;8.50;71.70;;;;;;5070779;28;20418;-71
2021/04/02 06:50:15;;;;;;;8.40;4.20;;;8.40;71.70;;;;;;5069547;28;20465;-72
2021/04/02 06:52:41;;;;;;;12.50;5.30;;;8.40;72.00;;;;;;5056671;28;20511;-71
2021/04/02 06:55:11;;;;;;;9.57;5.53;;;8.50;71.80;;;;;;5066312;28;20961;-69
2021/04/02 06:57:37;;;;;;;10.50;5.37;;;8.50;71.80;;;;;;5069896;28;20601;-70
2021/04/02 07:00:04;;;;;;;15.17;8.00;;;8.60;71.80;;;;;;5069590;28;20473;-71
2021/04/02 07:02:32;;;;;;;11.43;6.20;;;8.60;71.60;;;;;;5068542;28;20466;-72
2021/04/02 07:05:00;;;;;;;16.80;6.50;;;8.60;71.40;;;;;;5067926;28;20504;-71
2021/04/02 07:07:26;;;;;;;14.30;5.67;;;8.50;71.80;;;;;;5069668;28;20451;-72
2021/04/02 07:09:56;;;;;;;11.23;5.97;;;8.50;71.80;;;;;;5068010;28;20430;-71
2021/04/02 07:12:23;;;;;;;13.73;6.50;;;8.60;71.40;;;;;;5069748;28;20424;-73
2021/04/02 07:14:49;;;;;;;13.30;6.33;;;8.60;71.40;;;;;;5069510;28;20432;-73
2021/04/02 07:17:15;;;;;;;13.50;5.80;;;8.70;71.00;;;;;;5068731;28;20434;-75
2021/04/02 07:19:43;;;;;;;10.60;6.40;;;8.70;71.10;;;;;;5070954;28;20526;-71
2021/04/02 07:22:09;;;;;;;12.10;5.90;;;8.70;71.40;;;;;;5069648;28;20500;-70
2021/04/02 07:24:35;;;;;;;10.50;6.20;;;8.80;71.30;;;;;;5069378;28;20449;-72
2021/04/02 07:27:01;;;;;;;12.33;6.13;;;8.80;70.70;;;;;;5064779;28;20874;-74
2021/04/02 07:29:28;;;;;;;12.50;6.10;;;8.60;71.40;;;;;;5063785;28;20456;-72
2021/04/02 07:31:54;;;;;;;15.80;6.37;;;8.70;71.60;;;;;;5058052;28;20211;-72
2021/04/02 07:34:21;;;;;;;13.40;7.63;;;8.80;71.40;;;;;;5069158;28;20417;-72
2021/04/02 07:36:48;;;;;;;12.57;6.53;;;8.70;71.40;;;;;;5069119;28;20534;-71
2021/04/02 07:39:19;;;;;;;14.00;7.47;;;8.80;71.40;;;;;;5068953;28;20429;-73
2021/04/02 07:41:48;;;;;;;11.30;6.70;;;8.90;71.10;;;;;;5071460;28;20474;-73
2021/04/02 07:44:16;;;;;;;15.50;6.50;;;8.90;71.30;;;;;;5074098;28;20482;-73
2021/04/02 07:47:09;;;;;;;16.83;7.93;;;8.90;71.40;;;;;;5073746;28;20510;-72
2021/04/02 07:49:58;;;;;;;13.80;6.93;;;9.00;71.30;;;;;;5060814;28;20793;-73
2021/04/02 07:52:30;;;;;;;18.10;8.13;;;9.10;71.10;;;;;;5071730;28;20449;-71
2021/04/02 07:55:17;;;;;;;18.13;7.80;;;9.10;71.00;;;;;;5073986;28;20512;-72
2021/04/02 07:57:50;;;;;;;14.17;7.50;;;9.10;70.70;;;;;;5073433;28;20477;-72
2021/04/02 08:00:16;;;;;;;16.27;7.10;;;9.00;71.30;;;;;;5073835;28;20422;-70
2021/04/02 08:02:43;;;;;;;16.03;7.77;;;9.00;71.40;;;;;;5073971;28;20504;-71
2021/04/02 08:05:15;;;;;;;14.30;7.10;;;9.00;71.40;;;;;;5073609;28;20449;-73
2021/04/02 08:07:45;;;;;;;13.03;7.57;;;9.00;71.60;;;;;;5074312;28;20413;-72
2021/04/02 08:10:19;;;;;;;20.67;7.80;;;9.10;71.80;;;;;;5075643;28;20422;-72
2021/04/02 08:12:44;;;;;;;15.40;8.10;;;9.30;71.80;;;;;;5079700;28;20430;-72
2021/04/02 08:15:12;;;;;;;12.93;7.80;;;9.50;70.80;;;;;;5082044;28;20472;-73
2021/04/02 08:17:39;;;;;;;16.67;8.37;;;9.50;70.10;;;;;;5073068;28;20630;-73
2021/04/02 08:20:09;;;;;;;16.23;8.40;;;9.50;70.20;;;;;;5071650;28;20571;-72
2021/04/02 08:22:37;;;;;;;15.03;8.20;;;9.50;70.20;;;;;;5072164;28;20458;-73
2021/04/02 08:25:12;;;;;;;18.83;8.10;;;9.40;70.70;;;;;;5072886;28;20414;-72
2021/04/02 08:27:39;;;;;;;14.10;8.50;;;9.40;71.00;;;;;;5072463;28;20520;-70
2021/04/02 08:30:08;;;;;;;14.70;7.80;;;9.50;71.00;;;;;;5068313;28;20433;-71
2021/04/02 08:32:43;;;;;;;19.23;9.00;;;9.70;70.20;;;;;;5067854;28;20483;-73
2021/04/02 08:35:11;;;;;;;16.00;8.70;;;9.80;70.20;;;;;;5074110;28;20441;-73
2021/04/02 08:37:36;;;;;;;15.90;8.70;;;10.00;69.40;;;;;;5073612;28;20501;-74
2021/04/02 08:40:08;;;;;;;16.97;9.27;;;10.00;69.20;;;;;;5072540;28;20514;-71
2021/04/02 08:42:34;;;;;;;21.43;9.63;;;10.10;69.20;;;;;;5070230;28;20652;-74
2021/04/02 08:45:08;;;;;;;15.63;8.70;;;10.00;68.90;;;;;;5071970;28;20452;-72
2021/04/02 08:47:37;;;;;;;17.50;9.23;;;10.00;69.20;;;;;;5072304;28;20414;-72
2021/04/02 08:50:04;;;;;;;16.00;8.80;;;10.20;69.40;;;;;;5071800;28;20936;-72
2021/04/02 08:52:30;;;;;;;16.00;9.00;;;10.20;68.30;;;;;;5071466;28;20977;-72
2021/04/02 08:54:57;;;;;;;23.40;9.57;;;10.00;68.90;;;;;;5068288;28;20881;-74
2021/04/02 08:57:33;;;;;;;20.70;9.87;;;10.10;69.40;;;;;;5056890;28;20446;-72
2021/04/02 09:00:01;;;;;;;17.03;9.30;;;10.20;68.80;;;;;;5070345;28;20425;-73
2021/04/02 09:02:29;;;;;;;16.47;9.00;;;10.30;68.50;;;;;;5058702;28;20469;-73
2021/04/02 09:04:56;;;;;;;18.83;9.90;;;10.40;68.00;;;;;;5071509;28;20454;-70
2021/04/02 09:07:22;;;;;;;16.90;9.23;;;10.40;67.70;;;;;;5071638;28;20430;-72
2021/04/02 09:09:49;;;;;;;19.57;10.20;;;10.20;68.50;;;;;;5070444;28;21182;-71
2021/04/02 09:12:19;;;;;;;19.33;10.50;;;10.40;68.20;;;;;;5071804;28;20550;-72
2021/04/02 09:14:47;;;;;;;24.83;9.83;;;10.40;67.50;;;;;;5073794;28;20426;-72
2021/04/02 09:17:15;;;;;;;17.33;10.27;;;10.60;67.50;;;;;;5070625;28;20438;-73
2021/04/02 09:19:41;;;;;;;17.13;9.60;;;10.60;67.20;;;;;;5072435;28;20986;-72
2021/04/02 09:22:07;;;;;;;22.90;10.23;;;10.60;67.30;;;;;;5073634;28;20472;-71
2021/04/02 09:24:38;;;;;;;22.00;9.30;;;10.50;67.70;;;;;;5071705;28;20434;-74
2021/04/02 09:27:18;;;;;;;21.57;9.70;;;10.50;68.20;;;;;;5072040;28;20487;-72
2021/04/02 09:29:46;;;;;;;21.30;10.27;;;10.70;67.50;;;;;;5067340;28;20445;-72
2021/04/02 09:32:12;;;;;;;19.87;10.50;;;11.00;65.80;;;;;;5065148;28;20441;-74
2021/04/02 09:34:38;;;;;;;20.70;9.17;;;11.10;65.80;;;;;;5070532;28;20439;-73
2021/04/02 09:37:04;;;;;;;22.17;9.77;;;11.30;64.50;;;;;;5063705;28;20453;-72
2021/04/02 09:39:37;;;;;;;18.23;10.33;;;11.30;63.70;;;;;;5071070;28;20960;-72
2021/04/02 09:42:04;;;;;;;23.63;12.17;;;11.40;63.40;;;;;;5071449;28;20583;-72
2021/04/02 09:44:36;;;;;;;15.00;8.80;;;11.70;62.90;;;;;;5072126;28;20763;-70
2021/04/02 09:47:09;;;;;;;19.27;10.00;;;11.50;62.90;;;;;;5071553;28;20519;-72
2021/04/02 09:49:37;;;;;;;25.17;10.17;;;11.40;63.90;;;;;;5073712;28;20422;-71
2021/04/02 09:52:04;;;;;;;17.17;9.00;;;11.50;62.90;;;;;;5073792;28;20445;-72
2021/04/02 09:54:31;;;;;;;25.63;12.50;;;11.70;63.10;;;;;;5074707;28;20426;-70
2021/04/02 09:57:00;;;;;;;17.17;9.20;;;11.70;62.30;;;;;;5071645;28;20478;-72
2021/04/02 09:59:26;;;;;;;16.47;9.30;;;11.70;63.10;;;;;;5075146;28;20554;-71
2021/04/02 10:01:52;;;;;;;23.07;10.47;;;11.80;61.70;;;;;;5083859;28;20458;-71
2021/04/02 10:04:18;;;;;;;18.13;10.23;;;11.80;60.60;;;;;;5088053;28;20422;-72
2021/04/02 10:06:45;;;;;;;19.73;10.63;;;11.70;61.60;;;;;;5088584;28;20438;-72
2021/04/02 10:09:11;;;;;;;21.43;9.67;;;11.80;61.60;;;;;;5085091;28;20426;-74
2021/04/02 10:11:42;;;;;;;15.70;9.37;;;11.90;61.00;;;;;;5073864;28;20441;-72
2021/04/02 10:14:08;;;;;;;16.80;8.57;;;12.00;59.30;;;;;;5071230;28;20422;-71
2021/04/02 10:16:34;;;;;;;18.03;8.73;;;11.90;58.90;;;;;;5070633;28;20438;-71
2021/04/02 10:19:02;;;;;;;14.10;8.53;;;11.90;59.30;;;;;;5069413;28;20430;-71
2021/04/02 10:21:28;;;;;;;20.43;10.27;;;12.10;58.50;;;;;;5065923;28;20431;-72
2021/04/02 10:23:54;;;;;;;21.10;9.83;;;12.20;58.50;;;;;;5062032;28;20471;-73
2021/04/02 10:26:20;;;;;;;15.27;9.40;;;11.90;59.20;;;;;;5070247;28;20887;-72
2021/04/02 10:28:46;;;;;;;17.80;9.37;;;11.80;60.30;;;;;;5072116;28;20430;-73
2021/04/02 10:31:13;;;;;;;20.13;9.83;;;12.00;59.70;;;;;;5056821;28;20452;-71
2021/04/02 10:33:38;;;;;;;22.57;10.80;;;12.10;58.80;;;;;;5073593;28;20430;-70
2021/04/02 10:36:05;;;;;;;17.90;9.60;;;12.30;58.20;;;;;;5072301;28;21154;-70
2021/04/02 10:38:32;;;;;;;16.80;10.50;;;12.30;58.10;;;;;;5073502;28;20184;-73
2021/04/02 10:40:57;;;;;;;21.20;10.93;;;12.20;58.50;;;;;;5072219;28;20425;-72
2021/04/02 10:43:23;;;;;;;21.00;10.70;;;12.10;58.70;;;;;;5081448;28;20461;-73
2021/04/02 10:45:49;;;;;;;16.03;9.30;;;12.20;58.90;;;;;;5081953;28;20235;-73
2021/04/02 10:48:15;;;;;;;20.40;10.30;;;12.40;57.80;;;;;;5064427;28;20648;-73
2021/04/02 10:50:44;;;;;;;17.60;9.90;;;12.50;57.40;;;;;;5068688;28;20806;-73
2021/04/02 10:53:10;;;;;;;14.93;8.93;;;12.10;57.40;;;;;;5068175;28;20546;-73
2021/04/02 10:55:36;;;;;;;18.83;10.20;;;12.20;58.00;;;;;;5069409;28;20827;-73
2021/04/02 10:58:05;;;;;;;17.80;10.20;;;12.70;55.60;;;;;;5069201;28;20426;-74
2021/04/02 11:00:31;;;;;;;20.30;11.10;;;12.80;55.20;;;;;;5070173;28;20502;-72
2021/04/02 11:02:57;;;;;;;20.80;10.33;;;12.70;54.80;;;;;;5068128;28;20481;-73
2021/04/02 11:05:23;;;;;;;15.97;9.37;;;12.70;55.40;;;;;;5070371;28;20460;-71
2021/04/02 11:07:48;;;;;;;17.03;8.90;;;13.20;54.80;;;;;;5084993;28;20430;-71
2021/04/02 11:10:15;;;;;;;15.20;8.77;;;13.10;52.00;;;;;;5070050;28;20262;-72
2021/04/02 11:12:41;;;;;;;18.50;10.00;;;12.70;52.60;;;;;;5070727;28;20191;-73
2021/04/02 11:15:12;;;;;;;14.20;9.03;;;12.20;54.40;;;;;;5065052;28;20459;-74
2021/04/02 11:17:38;;;;;;;15.57;9.60;;;12.40;54.80;;;;;;5070393;28;20433;-74
2021/04/02 11:20:04;;;;;;;17.60;9.77;;;12.90;53.00;;;;;;5073508;28;20456;-74
2021/04/02 11:22:30;;;;;;;14.03;8.57;;;13.20;52.20;;;;;;5066938;28;20467;-73
2021/04/02 11:24:56;;;;;;;17.43;9.00;;;13.40;51.20;;;;;;5070664;28;20499;-73
2021/04/02 11:27:21;;;;;;;17.80;7.93;;;13.10;50.20;;;;;;5074351;28;20187;-72
2021/04/02 11:29:48;;;;;;;13.10;8.17;;;12.50;51.80;;;;;;5067217;28;20612;-74
2021/04/02 11:32:14;;;;;;;17.33;8.10;;;12.70;51.80;;;;;;5064805;28;20183;-71
2021/04/02 11:34:40;;;;;;;18.03;9.87;;;13.10;50.60;;;;;;5073153;28;20444;-72
2021/04/02 11:37:06;;;;;;;20.27;10.90;;;13.50;50.50;;;;;;5073633;28;20476;-73
2021/04/02 11:39:33;;;;;;;12.80;7.30;;;13.60;50.60;;;;;;5073127;28;20418;-73
2021/04/02 11:41:59;;;;;;;12.03;7.77;;;13.90;50.70;;;;;;5068765;28;20474;-74
2021/04/02 11:44:26;;;;;;;12.50;7.70;;;13.90;49.10;;;;;;5072596;28;20466;-72
2021/04/02 11:46:52;;;;;;;12.20;7.30;;;13.80;49.30;;;;;;5073661;28;20442;-73
2021/04/02 11:49:18;;;;;;;13.90;7.97;;;14.20;47.50;;;;;;5073228;28;20422;-74
2021/04/02 11:51:45;;;;;;;15.13;7.50;;;14.50;46.90;;;;;;5073441;28;20435;-72
2021/04/02 11:54:11;;;;;;;12.90;7.10;;;14.40;46.30;;;;;;5071868;28;20441;-72
2021/04/02 11:56:36;;;;;;;14.20;6.83;;;14.60;46.10;;;;;;5063303;28;20446;-71
2021/04/02 11:59:02;;;;;;;11.90;6.97;;;14.60;46.90;;;;;;5069602;28;20241;-73
2021/04/02 12:01:28;;;;;;;11.80;7.50;;;14.40;47.70;;;;;;5066746;28;20901;-71
2021/04/02 12:03:54;;;;;;;10.30;6.67;;;14.40;47.70;;;;;;5069650;28;20472;-72
2021/04/02 12:06:22;;;;;;;12.97;7.70;;;14.40;47.50;;;;;;5066523;28;20457;-70
2021/04/02 12:08:47;;;;;;;14.60;6.87;;;13.80;48.90;;;;;;5072486;28;20241;-71
2021/04/02 12:11:13;;;;;;;12.50;7.73;;;13.50;49.50;;;;;;5072404;28;20421;-72
2021/04/02 12:13:39;;;;;;;10.40;6.80;;;13.70;49.70;;;;;;5074648;28;20267;-74
2021/04/02 12:16:06;;;;;;;11.40;6.83;;;14.00;48.10;;;;;;5074488;28;20506;-72
2021/04/02 12:18:31;;;;;;;10.57;6.73;;;14.40;47.40;;;;;;5074675;28;20251;-71
2021/04/02 12:20:57;;;;;;;12.00;6.50;;;14.00;46.70;;;;;;5074307;28;20525;-73
2021/04/02 12:23:23;;;;;;;15.37;7.23;;;14.10;46.90;;;;;;5073906;28;20230;-73
2021/04/02 12:25:49;;;;;;;10.57;6.70;;;14.20;45.40;;;;;;5073989;28;20443;-73
2021/04/02 12:28:14;;;;;;;9.50;6.30;;;14.20;45.40;;;;;;5073120;28;20181;-73
2021/04/02 12:30:41;;;;;;;10.60;6.87;;;13.90;46.60;;;;;;5061353;28;20189;-73
2021/04/02 12:33:06;;;;;;;9.60;6.50;;;14.00;46.60;;;;;;5072908;28;20270;-72
2021/04/02 12:35:33;;;;;;;10.60;5.70;;;14.40;45.40;;;;;;5074089;28;20502;-74
2021/04/02 12:37:58;;;;;;;12.03;7.80;;;14.80;44.10;;;;;;5074021;28;20187;-75
2021/04/02 12:40:25;;;;;;;10.70;6.33;;;14.30;45.40;;;;;;5073693;28;20434;-72
2021/04/02 12:42:51;;;;;;;9.87;6.30;;;14.00;46.50;;;;;;5089039;28;20282;-72